sensor_id;sensor_type;location;lat;lon;timestamp;P1;durP1;ratioP1;P2;durP2;ratioP2
17818;SDS011;9034;50.284;19.310;2023-04-01T00:00:45;6.18;;;3.63;;
17818;SDS011;9034;50.284;19.310;2023-04-01T00:01:48;4.05;;;3.65;;
17818;SDS011;9034;50.284;19.310;2023-04-01T00:02:51;6.32;;;4.15;;
17818;SDS011;9034;50.284;19.310;2023-04-01T00:03:54;8.85;;;4.55;;
17818;SDS011;9034;50.284;19.310;2023-04-01T00:04:57;5.40;;;4.15;;
17818;SDS011;9034;50.284;19.310;2023-04-01T00:05:59;6.75;;;3.58;;
17818;SDS011;9034;50.284;19.310;2023-04-01T00:07:02;7.20;;;4.47;;
17818;SDS011;9034;50.284;19.310;2023-04-01T00:08:05;9.02;;;3.97;;
17818;SDS011;9034;50.284;19.310;2023-04-01T00:09:07;6.93;;;3.95;;
17818;SDS011;9034;50.284;19.310;2023-04-01T00:10:11;7.15;;;4.20;;
17818;SDS011;9034;50.284;19.310;2023-04-01T00:11:14;7.45;;;3.70;;
17818;SDS011;9034;50.284;19.310;2023-04-01T00:12:21;5.20;;;3.60;;
17818;SDS011;9034;50.284;19.310;2023-04-01T00:13:23;5.40;;;3.40;;
17818;SDS011;9034;50.284;19.310;2023-04-01T00:14:27;6.53;;;3.95;;
17818;SDS011;9034;50.284;19.310;2023-04-01T00:15:30;7.13;;;3.90;;
17818;SDS011;9034;50.284;19.310;2023-04-01T00:16:32;6.85;;;3.50;;
17818;SDS011;9034;50.284;19.310;2023-04-01T00:17:36;7.22;;;3.80;;
17818;SDS011;9034;50.284;19.310;2023-04-01T00:18:39;5.35;;;4.10;;
17818;SDS011;9034;50.284;19.310;2023-04-01T00:19:42;6.53;;;3.58;;
17818;SDS011;9034;50.284;19.310;2023-04-01T00:20:44;4.75;;;3.70;;
17818;SDS011;9034;50.284;19.310;2023-04-01T00:21:54;7.53;;;4.00;;
17818;SDS011;9034;50.284;19.310;2023-04-01T00:22:55;8.95;;;3.95;;
17818;SDS011;9034;50.284;19.310;2023-04-01T00:23:59;4.95;;;3.63;;
17818;SDS011;9034;50.284;19.310;2023-04-01T00:25:03;6.72;;;4.30;;
17818;SDS011;9034;50.284;19.310;2023-04-01T00:26:07;6.13;;;3.72;;
17818;SDS011;9034;50.284;19.310;2023-04-01T00:27:10;4.78;;;3.75;;
17818;SDS011;9034;50.284;19.310;2023-04-01T00:28:13;8.10;;;4.03;;
17818;SDS011;9034;50.284;19.310;2023-04-01T00:29:15;7.10;;;3.97;;
17818;SDS011;9034;50.284;19.310;2023-04-01T00:30:18;5.63;;;3.90;;
17818;SDS011;9034;50.284;19.310;2023-04-01T00:31:20;7.90;;;4.10;;
17818;SDS011;9034;50.284;19.310;2023-04-01T00:32:23;6.45;;;4.07;;
17818;SDS011;9034;50.284;19.310;2023-04-01T00:33:26;6.85;;;3.63;;
17818;SDS011;9034;50.284;19.310;2023-04-01T00:34:32;5.57;;;3.75;;
17818;SDS011;9034;50.284;19.310;2023-04-01T00:35:34;6.38;;;4.20;;
17818;SDS011;9034;50.284;19.310;2023-04-01T00:36:37;6.35;;;3.85;;
17818;SDS011;9034;50.284;19.310;2023-04-01T00:37:39;7.00;;;4.57;;
17818;SDS011;9034;50.284;19.310;2023-04-01T00:38:43;6.78;;;4.20;;
17818;SDS011;9034;50.284;19.310;2023-04-01T00:39:46;6.68;;;5.00;;
17818;SDS011;9034;50.284;19.310;2023-04-01T00:40:49;8.48;;;4.88;;
17818;SDS011;9034;50.284;19.310;2023-04-01T00:41:53;5.68;;;4.18;;
17818;SDS011;9034;50.284;19.310;2023-04-01T00:42:58;5.78;;;4.10;;
17818;SDS011;9034;50.284;19.310;2023-04-01T00:44:15;7.75;;;4.43;;
17818;SDS011;9034;50.284;19.310;2023-04-01T00:45:26;7.10;;;4.55;;
17818;SDS011;9034;50.284;19.310;2023-04-01T00:46:32;6.15;;;4.53;;
17818;SDS011;9034;50.284;19.310;2023-04-01T00:47:36;5.97;;;4.03;;
17818;SDS011;9034;50.284;19.310;2023-04-01T00:48:39;9.50;;;4.88;;
17818;SDS011;9034;50.284;19.310;2023-04-01T00:49:45;6.82;;;4.57;;
17818;SDS011;9034;50.284;19.310;2023-04-01T00:50:49;9.07;;;4.40;;
17818;SDS011;9034;50.284;19.310;2023-04-01T00:51:54;6.68;;;5.05;;
17818;SDS011;9034;50.284;19.310;2023-04-01T00:52:58;8.52;;;4.30;;
17818;SDS011;9034;50.284;19.310;2023-04-01T00:54:01;8.52;;;5.20;;
17818;SDS011;9034;50.284;19.310;2023-04-01T00:55:05;7.88;;;4.80;;
17818;SDS011;9034;50.284;19.310;2023-04-01T00:56:10;6.68;;;5.10;;
17818;SDS011;9034;50.284;19.310;2023-04-01T00:57:17;8.48;;;5.32;;
17818;SDS011;9034;50.284;19.310;2023-04-01T00:58:23;6.43;;;5.07;;
17818;SDS011;9034;50.284;19.310;2023-04-01T00:59:26;8.75;;;5.53;;
17818;SDS011;9034;50.284;19.310;2023-04-01T01:00:30;6.30;;;5.38;;
17818;SDS011;9034;50.284;19.310;2023-04-01T01:01:33;10.85;;;5.50;;
17818;SDS011;9034;50.284;19.310;2023-04-01T01:02:39;7.90;;;5.88;;
17818;SDS011;9034;50.284;19.310;2023-04-01T01:03:43;7.40;;;5.32;;
17818;SDS011;9034;50.284;19.310;2023-04-01T01:04:46;8.55;;;6.47;;
17818;SDS011;9034;50.284;19.310;2023-04-01T01:06:01;8.52;;;6.13;;
17818;SDS011;9034;50.284;19.310;2023-04-01T01:07:13;7.53;;;5.60;;
17818;SDS011;9034;50.284;19.310;2023-04-01T01:08:25;8.38;;;6.20;;
17818;SDS011;9034;50.284;19.310;2023-04-01T01:09:37;9.63;;;6.32;;
17818;SDS011;9034;50.284;19.310;2023-04-01T01:10:43;9.13;;;6.38;;
17818;SDS011;9034;50.284;19.310;2023-04-01T01:11:51;7.15;;;5.28;;
17818;SDS011;9034;50.284;19.310;2023-04-01T01:13:00;8.27;;;5.45;;
17818;SDS011;9034;50.284;19.310;2023-04-01T01:14:09;6.18;;;4.93;;
17818;SDS011;9034;50.284;19.310;2023-04-01T01:15:20;6.68;;;5.15;;
17818;SDS011;9034;50.284;19.310;2023-04-01T01:16:25;7.15;;;5.05;;
17818;SDS011;9034;50.284;19.310;2023-04-01T01:17:32;7.85;;;5.53;;
17818;SDS011;9034;50.284;19.310;2023-04-01T01:18:45;7.65;;;4.82;;
17818;SDS011;9034;50.284;19.310;2023-04-01T01:21:46;8.25;;;5.43;;
17818;SDS011;9034;50.284;19.310;2023-04-01T01:23:01;9.13;;;4.82;;
17818;SDS011;9034;50.284;19.310;2023-04-01T01:24:26;7.10;;;5.00;;
17818;SDS011;9034;50.284;19.310;2023-04-01T01:25:32;7.75;;;4.65;;
17818;SDS011;9034;50.284;19.310;2023-04-01T01:26:42;7.43;;;4.93;;
17818;SDS011;9034;50.284;19.310;2023-04-01T01:27:54;8.05;;;4.65;;
17818;SDS011;9034;50.284;19.310;2023-04-01T01:29:06;8.60;;;4.93;;
17818;SDS011;9034;50.284;19.310;2023-04-01T01:30:18;6.63;;;5.05;;
17818;SDS011;9034;50.284;19.310;2023-04-01T01:31:28;10.25;;;4.40;;
17818;SDS011;9034;50.284;19.310;2023-04-01T01:32:37;5.28;;;4.18;;
17818;SDS011;9034;50.284;19.310;2023-04-01T01:33:48;5.72;;;4.00;;
17818;SDS011;9034;50.284;19.310;2023-04-01T01:34:55;10.82;;;4.57;;
17818;SDS011;9034;50.284;19.310;2023-04-01T01:36:08;7.03;;;3.90;;
17818;SDS011;9034;50.284;19.310;2023-04-01T01:37:13;5.93;;;3.65;;
17818;SDS011;9034;50.284;19.310;2023-04-01T01:38:17;7.50;;;4.75;;
17818;SDS011;9034;50.284;19.310;2023-04-01T01:39:30;6.82;;;5.00;;
17818;SDS011;9034;50.284;19.310;2023-04-01T01:40:33;5.28;;;4.07;;
17818;SDS011;9034;50.284;19.310;2023-04-01T01:41:38;8.13;;;4.28;;
17818;SDS011;9034;50.284;19.310;2023-04-01T01:42:41;6.00;;;4.15;;
17818;SDS011;9034;50.284;19.310;2023-04-01T01:43:47;5.28;;;4.13;;
17818;SDS011;9034;50.284;19.310;2023-04-01T01:44:52;5.63;;;4.25;;
17818;SDS011;9034;50.284;19.310;2023-04-01T01:45:57;5.20;;;4.03;;
17818;SDS011;9034;50.284;19.310;2023-04-01T01:47:00;8.43;;;4.50;;
17818;SDS011;9034;50.284;19.310;2023-04-01T01:48:03;5.55;;;3.95;;
17818;SDS011;9034;50.284;19.310;2023-04-01T01:49:07;4.60;;;3.53;;
17818;SDS011;9034;50.284;19.310;2023-04-01T01:50:11;4.50;;;3.63;;
17818;SDS011;9034;50.284;19.310;2023-04-01T01:51:14;5.00;;;4.18;;
17818;SDS011;9034;50.284;19.310;2023-04-01T01:52:17;6.75;;;3.50;;
17818;SDS011;9034;50.284;19.310;2023-04-01T01:53:19;7.72;;;3.80;;
17818;SDS011;9034;50.284;19.310;2023-04-01T01:54:23;5.80;;;3.97;;
17818;SDS011;9034;50.284;19.310;2023-04-01T01:55:26;7.22;;;4.07;;
17818;SDS011;9034;50.284;19.310;2023-04-01T01:56:31;4.82;;;3.78;;
17818;SDS011;9034;50.284;19.310;2023-04-01T01:57:36;7.00;;;3.47;;
17818;SDS011;9034;50.284;19.310;2023-04-01T01:58:47;4.93;;;3.58;;
17818;SDS011;9034;50.284;19.310;2023-04-01T01:59:54;6.68;;;3.92;;
17818;SDS011;9034;50.284;19.310;2023-04-01T02:01:03;5.22;;;4.13;;
17818;SDS011;9034;50.284;19.310;2023-04-01T02:02:07;5.90;;;3.50;;
17818;SDS011;9034;50.284;19.310;2023-04-01T02:03:11;5.05;;;3.45;;
17818;SDS011;9034;50.284;19.310;2023-04-01T02:04:15;5.03;;;3.65;;
17818;SDS011;9034;50.284;19.310;2023-04-01T02:05:21;4.88;;;3.47;;
17818;SDS011;9034;50.284;19.310;2023-04-01T02:06:34;6.68;;;3.88;;
17818;SDS011;9034;50.284;19.310;2023-04-01T02:07:40;5.68;;;3.78;;
17818;SDS011;9034;50.284;19.310;2023-04-01T02:08:44;4.43;;;3.22;;
17818;SDS011;9034;50.284;19.310;2023-04-01T02:09:50;7.30;;;4.07;;
17818;SDS011;9034;50.284;19.310;2023-04-01T02:10:55;4.28;;;3.22;;
17818;SDS011;9034;50.284;19.310;2023-04-01T02:12:05;4.32;;;3.78;;
17818;SDS011;9034;50.284;19.310;2023-04-01T02:13:14;6.63;;;3.95;;
17818;SDS011;9034;50.284;19.310;2023-04-01T02:14:20;5.82;;;3.83;;
17818;SDS011;9034;50.284;19.310;2023-04-01T02:15:26;4.95;;;3.53;;
17818;SDS011;9034;50.284;19.310;2023-04-01T02:16:33;4.72;;;3.20;;
17818;SDS011;9034;50.284;19.310;2023-04-01T02:17:39;6.03;;;3.30;;
17818;SDS011;9034;50.284;19.310;2023-04-01T02:18:44;9.70;;;3.45;;
17818;SDS011;9034;50.284;19.310;2023-04-01T02:19:50;8.90;;;3.53;;
17818;SDS011;9034;50.284;19.310;2023-04-01T02:20:57;6.22;;;4.00;;
17818;SDS011;9034;50.284;19.310;2023-04-01T02:22:02;8.35;;;3.65;;
17818;SDS011;9034;50.284;19.310;2023-04-01T02:23:05;6.90;;;3.92;;
17818;SDS011;9034;50.284;19.310;2023-04-01T02:24:11;5.60;;;3.80;;
17818;SDS011;9034;50.284;19.310;2023-04-01T02:25:16;5.40;;;3.83;;
17818;SDS011;9034;50.284;19.310;2023-04-01T02:26:22;5.78;;;3.42;;
17818;SDS011;9034;50.284;19.310;2023-04-01T02:27:28;7.10;;;3.80;;
17818;SDS011;9034;50.284;19.310;2023-04-01T02:28:31;5.53;;;3.80;;
17818;SDS011;9034;50.284;19.310;2023-04-01T02:29:33;4.55;;;3.47;;
17818;SDS011;9034;50.284;19.310;2023-04-01T02:30:40;5.18;;;3.50;;
17818;SDS011;9034;50.284;19.310;2023-04-01T02:31:43;4.70;;;3.67;;
17818;SDS011;9034;50.284;19.310;2023-04-01T02:32:47;5.40;;;3.95;;
17818;SDS011;9034;50.284;19.310;2023-04-01T02:33:50;4.32;;;3.40;;
17818;SDS011;9034;50.284;19.310;2023-04-01T02:34:53;4.75;;;3.65;;
17818;SDS011;9034;50.284;19.310;2023-04-01T02:35:57;5.43;;;3.30;;
17818;SDS011;9034;50.284;19.310;2023-04-01T02:37:02;5.47;;;3.80;;
17818;SDS011;9034;50.284;19.310;2023-04-01T02:38:06;6.05;;;3.70;;
17818;SDS011;9034;50.284;19.310;2023-04-01T02:39:09;5.75;;;4.00;;
17818;SDS011;9034;50.284;19.310;2023-04-01T02:40:12;6.95;;;4.18;;
17818;SDS011;9034;50.284;19.310;2023-04-01T02:41:15;4.22;;;3.45;;
17818;SDS011;9034;50.284;19.310;2023-04-01T02:42:17;6.68;;;4.00;;
17818;SDS011;9034;50.284;19.310;2023-04-01T02:43:20;6.47;;;4.22;;
17818;SDS011;9034;50.284;19.310;2023-04-01T02:44:22;6.70;;;4.15;;
17818;SDS011;9034;50.284;19.310;2023-04-01T02:45:25;4.75;;;4.10;;
17818;SDS011;9034;50.284;19.310;2023-04-01T02:46:27;6.45;;;4.20;;
17818;SDS011;9034;50.284;19.310;2023-04-01T02:47:30;5.57;;;3.92;;
17818;SDS011;9034;50.284;19.310;2023-04-01T02:48:32;5.68;;;4.22;;
17818;SDS011;9034;50.284;19.310;2023-04-01T02:49:35;7.75;;;4.25;;
17818;SDS011;9034;50.284;19.310;2023-04-01T02:50:37;12.55;;;4.43;;
17818;SDS011;9034;50.284;19.310;2023-04-01T02:51:41;8.13;;;3.88;;
17818;SDS011;9034;50.284;19.310;2023-04-01T02:52:44;5.45;;;3.92;;
17818;SDS011;9034;50.284;19.310;2023-04-01T02:53:47;4.90;;;3.85;;
17818;SDS011;9034;50.284;19.310;2023-04-01T02:54:49;5.50;;;4.10;;
17818;SDS011;9034;50.284;19.310;2023-04-01T02:55:52;7.72;;;4.07;;
17818;SDS011;9034;50.284;19.310;2023-04-01T02:56:54;11.75;;;4.70;;
17818;SDS011;9034;50.284;19.310;2023-04-01T02:57:56;7.22;;;3.92;;
17818;SDS011;9034;50.284;19.310;2023-04-01T02:58:58;6.97;;;4.13;;
17818;SDS011;9034;50.284;19.310;2023-04-01T03:00:01;5.63;;;4.03;;
17818;SDS011;9034;50.284;19.310;2023-04-01T03:01:04;5.35;;;3.97;;
17818;SDS011;9034;50.284;19.310;2023-04-01T03:02:07;6.07;;;4.20;;
17818;SDS011;9034;50.284;19.310;2023-04-01T03:03:11;6.43;;;3.53;;
17818;SDS011;9034;50.284;19.310;2023-04-01T03:04:15;5.88;;;3.83;;
17818;SDS011;9034;50.284;19.310;2023-04-01T03:05:16;5.45;;;3.95;;
17818;SDS011;9034;50.284;19.310;2023-04-01T03:06:19;4.72;;;3.97;;
17818;SDS011;9034;50.284;19.310;2023-04-01T03:07:22;6.53;;;3.65;;
17818;SDS011;9034;50.284;19.310;2023-04-01T03:08:28;8.50;;;4.10;;
17818;SDS011;9034;50.284;19.310;2023-04-01T03:09:30;10.15;;;4.50;;
17818;SDS011;9034;50.284;19.310;2023-04-01T03:10:33;4.78;;;4.10;;
17818;SDS011;9034;50.284;19.310;2023-04-01T03:11:38;6.47;;;4.10;;
17818;SDS011;9034;50.284;19.310;2023-04-01T03:12:42;5.57;;;4.47;;
17818;SDS011;9034;50.284;19.310;2023-04-01T03:13:45;8.48;;;4.25;;
17818;SDS011;9034;50.284;19.310;2023-04-01T03:14:49;6.45;;;4.43;;
17818;SDS011;9034;50.284;19.310;2023-04-01T03:15:51;8.27;;;3.88;;
17818;SDS011;9034;50.284;19.310;2023-04-01T03:16:54;7.40;;;4.38;;
17818;SDS011;9034;50.284;19.310;2023-04-01T03:17:57;4.65;;;3.85;;
17818;SDS011;9034;50.284;19.310;2023-04-01T03:19:00;8.05;;;4.55;;
17818;SDS011;9034;50.284;19.310;2023-04-01T03:20:04;7.28;;;4.45;;
17818;SDS011;9034;50.284;19.310;2023-04-01T03:21:13;6.10;;;4.57;;
17818;SDS011;9034;50.284;19.310;2023-04-01T03:22:16;7.00;;;4.38;;
17818;SDS011;9034;50.284;19.310;2023-04-01T03:23:23;8.02;;;5.22;;
17818;SDS011;9034;50.284;19.310;2023-04-01T03:24:26;9.02;;;5.40;;
17818;SDS011;9034;50.284;19.310;2023-04-01T03:25:29;10.02;;;5.05;;
17818;SDS011;9034;50.284;19.310;2023-04-01T03:26:32;7.00;;;4.75;;
17818;SDS011;9034;50.284;19.310;2023-04-01T03:27:35;6.40;;;4.65;;
17818;SDS011;9034;50.284;19.310;2023-04-01T03:28:37;6.15;;;4.40;;
17818;SDS011;9034;50.284;19.310;2023-04-01T03:29:42;7.93;;;4.93;;
17818;SDS011;9034;50.284;19.310;2023-04-01T03:30:47;8.27;;;5.15;;
17818;SDS011;9034;50.284;19.310;2023-04-01T03:31:50;5.22;;;4.40;;
17818;SDS011;9034;50.284;19.310;2023-04-01T03:32:52;5.70;;;4.30;;
17818;SDS011;9034;50.284;19.310;2023-04-01T03:33:56;7.57;;;4.90;;
17818;SDS011;9034;50.284;19.310;2023-04-01T03:35:01;8.77;;;4.60;;
17818;SDS011;9034;50.284;19.310;2023-04-01T03:36:04;6.45;;;4.90;;
17818;SDS011;9034;50.284;19.310;2023-04-01T03:37:08;8.50;;;4.95;;
17818;SDS011;9034;50.284;19.310;2023-04-01T03:38:10;6.28;;;4.15;;
17818;SDS011;9034;50.284;19.310;2023-04-01T03:39:14;8.00;;;4.65;;
17818;SDS011;9034;50.284;19.310;2023-04-01T03:40:20;9.07;;;5.03;;
17818;SDS011;9034;50.284;19.310;2023-04-01T03:41:22;8.57;;;4.78;;
17818;SDS011;9034;50.284;19.310;2023-04-01T03:42:25;8.82;;;4.68;;
17818;SDS011;9034;50.284;19.310;2023-04-01T03:43:27;6.22;;;4.80;;
17818;SDS011;9034;50.284;19.310;2023-04-01T03:44:31;7.70;;;4.70;;
17818;SDS011;9034;50.284;19.310;2023-04-01T03:45:34;6.93;;;4.72;;
17818;SDS011;9034;50.284;19.310;2023-04-01T03:46:37;7.03;;;4.70;;
17818;SDS011;9034;50.284;19.310;2023-04-01T03:47:40;6.68;;;4.70;;
17818;SDS011;9034;50.284;19.310;2023-04-01T03:48:42;7.28;;;5.07;;
17818;SDS011;9034;50.284;19.310;2023-04-01T03:49:45;8.23;;;4.65;;
17818;SDS011;9034;50.284;19.310;2023-04-01T03:50:48;9.23;;;4.40;;
17818;SDS011;9034;50.284;19.310;2023-04-01T03:51:51;6.40;;;5.03;;
17818;SDS011;9034;50.284;19.310;2023-04-01T03:52:56;7.00;;;4.50;;
17818;SDS011;9034;50.284;19.310;2023-04-01T03:53:59;6.03;;;4.45;;
17818;SDS011;9034;50.284;19.310;2023-04-01T03:55:04;7.88;;;5.32;;
17818;SDS011;9034;50.284;19.310;2023-04-01T03:56:09;9.95;;;5.10;;
17818;SDS011;9034;50.284;19.310;2023-04-01T03:57:12;9.40;;;5.20;;
17818;SDS011;9034;50.284;19.310;2023-04-01T03:58:15;7.60;;;5.00;;
17818;SDS011;9034;50.284;19.310;2023-04-01T03:59:19;8.25;;;5.10;;
17818;SDS011;9034;50.284;19.310;2023-04-01T04:00:21;7.70;;;5.22;;
17818;SDS011;9034;50.284;19.310;2023-04-01T04:01:31;7.63;;;5.20;;
17818;SDS011;9034;50.284;19.310;2023-04-01T04:02:34;6.57;;;5.25;;
17818;SDS011;9034;50.284;19.310;2023-04-01T04:03:42;5.78;;;4.85;;
17818;SDS011;9034;50.284;19.310;2023-04-01T04:04:45;8.93;;;5.38;;
17818;SDS011;9034;50.284;19.310;2023-04-01T04:05:50;6.35;;;4.80;;
17818;SDS011;9034;50.284;19.310;2023-04-01T04:06:53;7.63;;;4.68;;
17818;SDS011;9034;50.284;19.310;2023-04-01T04:07:57;8.30;;;4.88;;
17818;SDS011;9034;50.284;19.310;2023-04-01T04:08:59;7.53;;;5.18;;
17818;SDS011;9034;50.284;19.310;2023-04-01T04:10:06;8.38;;;5.22;;
17818;SDS011;9034;50.284;19.310;2023-04-01T04:11:09;9.00;;;5.15;;
17818;SDS011;9034;50.284;19.310;2023-04-01T04:12:17;7.65;;;6.07;;
17818;SDS011;9034;50.284;19.310;2023-04-01T04:13:20;9.60;;;5.82;;
17818;SDS011;9034;50.284;19.310;2023-04-01T04:14:29;9.68;;;6.32;;
17818;SDS011;9034;50.284;19.310;2023-04-01T04:15:34;8.75;;;6.18;;
17818;SDS011;9034;50.284;19.310;2023-04-01T04:16:38;9.35;;;6.68;;
17818;SDS011;9034;50.284;19.310;2023-04-01T04:17:45;10.38;;;6.05;;
17818;SDS011;9034;50.284;19.310;2023-04-01T04:18:49;9.30;;;6.78;;
17818;SDS011;9034;50.284;19.310;2023-04-01T04:19:52;8.70;;;6.85;;
17818;SDS011;9034;50.284;19.310;2023-04-01T04:20:55;10.00;;;6.30;;
17818;SDS011;9034;50.284;19.310;2023-04-01T04:21:59;10.57;;;6.75;;
17818;SDS011;9034;50.284;19.310;2023-04-01T04:23:03;7.72;;;5.97;;
17818;SDS011;9034;50.284;19.310;2023-04-01T04:24:06;9.15;;;5.82;;
17818;SDS011;9034;50.284;19.310;2023-04-01T04:25:30;11.95;;;6.03;;
17818;SDS011;9034;50.284;19.310;2023-04-01T04:26:33;6.45;;;5.80;;
17818;SDS011;9034;50.284;19.310;2023-04-01T04:27:36;9.07;;;6.38;;
17818;SDS011;9034;50.284;19.310;2023-04-01T04:28:42;9.27;;;6.00;;
17818;SDS011;9034;50.284;19.310;2023-04-01T04:29:47;9.02;;;5.47;;
17818;SDS011;9034;50.284;19.310;2023-04-01T04:30:49;8.32;;;5.45;;
17818;SDS011;9034;50.284;19.310;2023-04-01T04:31:59;7.80;;;5.30;;
17818;SDS011;9034;50.284;19.310;2023-04-01T04:33:02;7.65;;;5.30;;
17818;SDS011;9034;50.284;19.310;2023-04-01T04:34:05;8.38;;;5.85;;
17818;SDS011;9034;50.284;19.310;2023-04-01T04:35:10;7.28;;;5.28;;
17818;SDS011;9034;50.284;19.310;2023-04-01T04:36:14;9.20;;;4.82;;
17818;SDS011;9034;50.284;19.310;2023-04-01T04:37:26;6.20;;;4.40;;
17818;SDS011;9034;50.284;19.310;2023-04-01T04:38:30;8.32;;;4.75;;
17818;SDS011;9034;50.284;19.310;2023-04-01T04:39:36;7.13;;;4.30;;
17818;SDS011;9034;50.284;19.310;2023-04-01T04:40:42;7.28;;;4.55;;
17818;SDS011;9034;50.284;19.310;2023-04-01T04:41:45;7.32;;;4.70;;
17818;SDS011;9034;50.284;19.310;2023-04-01T04:42:48;6.35;;;4.65;;
17818;SDS011;9034;50.284;19.310;2023-04-01T04:43:52;7.63;;;4.85;;
17818;SDS011;9034;50.284;19.310;2023-04-01T04:44:58;7.88;;;4.82;;
17818;SDS011;9034;50.284;19.310;2023-04-01T04:46:03;10.02;;;5.47;;
17818;SDS011;9034;50.284;19.310;2023-04-01T04:47:07;5.82;;;4.47;;
17818;SDS011;9034;50.284;19.310;2023-04-01T04:48:10;6.47;;;4.57;;
17818;SDS011;9034;50.284;19.310;2023-04-01T04:49:18;6.82;;;4.80;;
17818;SDS011;9034;50.284;19.310;2023-04-01T04:50:24;7.45;;;4.63;;
17818;SDS011;9034;50.284;19.310;2023-04-01T04:51:29;7.80;;;4.53;;
17818;SDS011;9034;50.284;19.310;2023-04-01T04:52:35;7.55;;;4.65;;
17818;SDS011;9034;50.284;19.310;2023-04-01T04:53:37;10.35;;;4.90;;
17818;SDS011;9034;50.284;19.310;2023-04-01T04:54:42;6.50;;;4.78;;
17818;SDS011;9034;50.284;19.310;2023-04-01T04:55:46;6.32;;;4.63;;
17818;SDS011;9034;50.284;19.310;2023-04-01T04:57:28;7.97;;;4.70;;
17818;SDS011;9034;50.284;19.310;2023-04-01T04:58:35;9.85;;;5.43;;
17818;SDS011;9034;50.284;19.310;2023-04-01T04:59:38;9.45;;;5.20;;
17818;SDS011;9034;50.284;19.310;2023-04-01T05:00:53;6.32;;;4.90;;
17818;SDS011;9034;50.284;19.310;2023-04-01T05:02:02;7.63;;;4.43;;
17818;SDS011;9034;50.284;19.310;2023-04-01T05:03:05;5.47;;;4.45;;
17818;SDS011;9034;50.284;19.310;2023-04-01T05:04:08;5.45;;;4.47;;
17818;SDS011;9034;50.284;19.310;2023-04-01T05:05:11;7.82;;;4.53;;
17818;SDS011;9034;50.284;19.310;2023-04-01T05:06:14;7.90;;;4.45;;
17818;SDS011;9034;50.284;19.310;2023-04-01T05:07:21;6.57;;;4.40;;
17818;SDS011;9034;50.284;19.310;2023-04-01T05:08:23;6.22;;;3.88;;
17818;SDS011;9034;50.284;19.310;2023-04-01T05:09:27;6.78;;;4.18;;
17818;SDS011;9034;50.284;19.310;2023-04-01T05:10:29;7.10;;;4.15;;
17818;SDS011;9034;50.284;19.310;2023-04-01T05:11:35;5.22;;;3.67;;
17818;SDS011;9034;50.284;19.310;2023-04-01T05:12:42;8.27;;;5.15;;
17818;SDS011;9034;50.284;19.310;2023-04-01T05:13:49;9.23;;;3.67;;
17818;SDS011;9034;50.284;19.310;2023-04-01T05:14:53;7.15;;;4.20;;
17818;SDS011;9034;50.284;19.310;2023-04-01T05:15:55;7.65;;;4.18;;
17818;SDS011;9034;50.284;19.310;2023-04-01T05:16:59;6.68;;;3.88;;
17818;SDS011;9034;50.284;19.310;2023-04-01T05:18:04;7.88;;;4.13;;
17818;SDS011;9034;50.284;19.310;2023-04-01T05:19:08;11.57;;;4.30;;
17818;SDS011;9034;50.284;19.310;2023-04-01T05:20:11;6.18;;;4.15;;
17818;SDS011;9034;50.284;19.310;2023-04-01T05:21:15;11.60;;;3.88;;
17818;SDS011;9034;50.284;19.310;2023-04-01T05:22:17;7.57;;;4.35;;
17818;SDS011;9034;50.284;19.310;2023-04-01T05:23:25;6.60;;;4.32;;
17818;SDS011;9034;50.284;19.310;2023-04-01T05:24:27;7.90;;;4.45;;
17818;SDS011;9034;50.284;19.310;2023-04-01T05:25:31;6.70;;;4.63;;
17818;SDS011;9034;50.284;19.310;2023-04-01T05:26:33;8.50;;;4.00;;
17818;SDS011;9034;50.284;19.310;2023-04-01T05:27:38;6.10;;;3.83;;
17818;SDS011;9034;50.284;19.310;2023-04-01T05:28:42;5.50;;;4.20;;
17818;SDS011;9034;50.284;19.310;2023-04-01T05:29:44;6.20;;;3.88;;
17818;SDS011;9034;50.284;19.310;2023-04-01T05:31:10;7.40;;;4.00;;
17818;SDS011;9034;50.284;19.310;2023-04-01T05:32:16;7.05;;;4.35;;
17818;SDS011;9034;50.284;19.310;2023-04-01T05:33:18;7.28;;;4.40;;
17818;SDS011;9034;50.284;19.310;2023-04-01T05:34:22;7.35;;;4.38;;
17818;SDS011;9034;50.284;19.310;2023-04-01T05:35:24;6.50;;;4.30;;
17818;SDS011;9034;50.284;19.310;2023-04-01T05:36:31;6.43;;;4.07;;
17818;SDS011;9034;50.284;19.310;2023-04-01T05:37:33;7.80;;;4.35;;
17818;SDS011;9034;50.284;19.310;2023-04-01T05:38:38;7.95;;;4.60;;
17818;SDS011;9034;50.284;19.310;2023-04-01T05:39:46;6.97;;;4.10;;
17818;SDS011;9034;50.284;19.310;2023-04-01T05:40:48;6.82;;;4.28;;
17818;SDS011;9034;50.284;19.310;2023-04-01T05:41:51;6.03;;;4.10;;
17818;SDS011;9034;50.284;19.310;2023-04-01T05:42:54;5.63;;;3.78;;
17818;SDS011;9034;50.284;19.310;2023-04-01T05:43:57;5.93;;;4.32;;
17818;SDS011;9034;50.284;19.310;2023-04-01T05:45:11;5.82;;;3.80;;
17818;SDS011;9034;50.284;19.310;2023-04-01T05:46:22;6.10;;;4.25;;
17818;SDS011;9034;50.284;19.310;2023-04-01T05:47:31;6.05;;;3.92;;
17818;SDS011;9034;50.284;19.310;2023-04-01T05:48:34;4.38;;;3.47;;
17818;SDS011;9034;50.284;19.310;2023-04-01T05:49:37;7.85;;;4.32;;
17818;SDS011;9034;50.284;19.310;2023-04-01T05:50:40;6.45;;;4.10;;
17818;SDS011;9034;50.284;19.310;2023-04-01T05:51:44;5.65;;;3.67;;
17818;SDS011;9034;50.284;19.310;2023-04-01T05:53:12;7.07;;;3.50;;
17818;SDS011;9034;50.284;19.310;2023-04-01T05:54:17;6.30;;;4.10;;
17818;SDS011;9034;50.284;19.310;2023-04-01T05:55:20;6.60;;;4.22;;
17818;SDS011;9034;50.284;19.310;2023-04-01T05:56:24;5.75;;;3.90;;
17818;SDS011;9034;50.284;19.310;2023-04-01T05:57:27;5.47;;;3.85;;
17818;SDS011;9034;50.284;19.310;2023-04-01T05:58:32;10.20;;;4.28;;
17818;SDS011;9034;50.284;19.310;2023-04-01T05:59:34;6.68;;;3.45;;
17818;SDS011;9034;50.284;19.310;2023-04-01T06:00:37;8.45;;;4.07;;
17818;SDS011;9034;50.284;19.310;2023-04-01T06:01:39;5.78;;;3.78;;
17818;SDS011;9034;50.284;19.310;2023-04-01T06:02:42;6.22;;;4.22;;
17818;SDS011;9034;50.284;19.310;2023-04-01T06:03:46;6.88;;;4.10;;
17818;SDS011;9034;50.284;19.310;2023-04-01T06:04:49;5.30;;;4.22;;
17818;SDS011;9034;50.284;19.310;2023-04-01T06:06:13;10.23;;;4.65;;
17818;SDS011;9034;50.284;19.310;2023-04-01T06:07:19;8.43;;;5.03;;
17818;SDS011;9034;50.284;19.310;2023-04-01T06:08:22;8.13;;;4.55;;
17818;SDS011;9034;50.284;19.310;2023-04-01T06:09:26;8.85;;;4.32;;
17818;SDS011;9034;50.284;19.310;2023-04-01T06:10:36;7.75;;;4.82;;
17818;SDS011;9034;50.284;19.310;2023-04-01T06:11:45;7.35;;;4.22;;
17818;SDS011;9034;50.284;19.310;2023-04-01T06:13:25;7.82;;;4.28;;
17818;SDS011;9034;50.284;19.310;2023-04-01T06:14:37;6.95;;;4.47;;
17818;SDS011;9034;50.284;19.310;2023-04-01T06:15:48;6.50;;;3.90;;
17818;SDS011;9034;50.284;19.310;2023-04-01T06:16:58;10.02;;;4.95;;
17818;SDS011;9034;50.284;19.310;2023-04-01T06:18:16;8.98;;;4.22;;
17818;SDS011;9034;50.284;19.310;2023-04-01T06:19:53;6.05;;;4.13;;
17818;SDS011;9034;50.284;19.310;2023-04-01T06:21:01;6.50;;;4.10;;
17818;SDS011;9034;50.284;19.310;2023-04-01T06:22:12;6.32;;;4.30;;
17818;SDS011;9034;50.284;19.310;2023-04-01T06:23:32;5.15;;;3.70;;
17818;SDS011;9034;50.284;19.310;2023-04-01T06:24:45;7.03;;;4.20;;
17818;SDS011;9034;50.284;19.310;2023-04-01T06:26:02;6.15;;;4.47;;
17818;SDS011;9034;50.284;19.310;2023-04-01T06:27:15;6.38;;;4.20;;
17818;SDS011;9034;50.284;19.310;2023-04-01T06:30:05;7.78;;;4.32;;
17818;SDS011;9034;50.284;19.310;2023-04-01T06:31:24;9.48;;;5.03;;
17818;SDS011;9034;50.284;19.310;2023-04-01T06:32:38;7.80;;;4.15;;
17818;SDS011;9034;50.284;19.310;2023-04-01T06:34:06;6.10;;;4.00;;
17818;SDS011;9034;50.284;19.310;2023-04-01T06:35:30;7.50;;;4.25;;
17818;SDS011;9034;50.284;19.310;2023-04-01T06:36:43;4.50;;;3.70;;
17818;SDS011;9034;50.284;19.310;2023-04-01T06:37:58;7.25;;;5.05;;
17818;SDS011;9034;50.284;19.310;2023-04-01T06:42:23;5.35;;;3.70;;
17818;SDS011;9034;50.284;19.310;2023-04-01T06:43:43;4.80;;;3.10;;